Time;durP1;ratioP1;P1;durP2;ratioP2;P2;SDS_P1;SDS_P2;PMS_P1;PMS_P2;Temp;Humidity;BMP_temperature;BMP_pressure;BME280_temperature;BME280_humidity;BME280_pressure;Samples;Min_cycle;Max_cycle;Signal;HPM_P1;HPM_P2
2020/12/25 00:00:57;;;;;;;0.20;0.10;;;9.00;99.90;;;;;;20788455;28;20276;-71
2020/12/25 00:11:11;;;;;;;2.60;0.50;;;9.10;99.90;;;;;;20788831;28;20356;-71
2020/12/25 00:21:18;;;;;;;0.20;0.20;;;8.90;99.90;;;;;;20788500;28;20256;-70
2020/12/25 00:31:30;;;;;;;0.20;0.20;;;8.70;99.90;;;;;;20787407;28;20194;-72
2020/12/25 00:41:39;;;;;;;0.20;0.10;;;8.60;99.90;;;;;;20706135;28;20754;-73
2020/12/25 00:51:48;;;;;;;0.40;0.37;;;8.80;99.90;;;;;;20705234;28;20261;-71
2020/12/25 01:01:57;;;;;;;0.20;0.17;;;8.60;99.90;;;;;;20705461;28;20634;-72
2020/12/25 01:12:00;;;;;;;0.30;0.30;;;8.70;99.90;;;;;;20706476;28;20284;-72
2020/12/25 01:22:06;;;;;;;0.33;0.33;;;8.70;99.90;;;;;;20703255;28;20761;-72
2020/12/25 01:32:10;;;;;;;0.40;0.40;;;8.60;99.90;;;;;;20758719;28;20194;-71
2020/12/25 01:42:16;;;;;;;1.53;0.70;;;8.60;99.90;;;;;;20784914;28;20587;-74
2020/12/25 01:52:21;;;;;;;0.20;0.17;;;8.40;99.90;;;;;;20786452;28;20677;-72
2020/12/25 02:02:29;;;;;;;5.60;0.73;;;8.40;99.90;;;;;;20794728;22;20667;-78
2020/12/25 02:12:33;;;;;;;0.20;0.10;;;8.40;99.90;;;;;;20778496;28;20198;-74
2020/12/25 02:22:36;;;;;;;0.43;0.40;;;8.50;99.90;;;;;;20778028;28;20513;-75
2020/12/25 02:32:39;;;;;;;0.40;0.33;;;8.40;99.90;;;;;;20774230;28;20193;-72
2020/12/25 02:42:51;;;;;;;0.47;0.47;;;8.30;99.90;;;;;;20775669;28;20860;-75
2020/12/25 02:52:54;;;;;;;0.20;0.10;;;8.50;99.90;;;;;;20774650;28;20190;-74
2020/12/25 03:02:58;;;;;;;0.30;0.30;;;8.40;99.90;;;;;;20777662;28;20352;-79
2020/12/25 03:13:08;;;;;;;0.87;0.60;;;8.50;99.90;;;;;;20778069;28;20205;-75
2020/12/25 03:23:12;;;;;;;0.40;0.37;;;8.40;99.90;;;;;;20775160;28;20581;-75
2020/12/25 03:33:15;;;;;;;0.97;0.93;;;8.10;99.90;;;;;;20755181;28;20213;-74
2020/12/25 03:43:26;;;;;;;8.03;1.33;;;8.00;99.90;;;;;;20773849;28;20236;-73
2020/12/25 03:53:29;;;;;;;0.30;0.20;;;7.90;99.90;;;;;;20776241;28;20224;-76
2020/12/25 04:03:32;;;;;;;0.50;0.50;;;8.10;99.90;;;;;;20756403;23;20237;-72
2020/12/25 04:13:44;;;;;;;2.97;1.40;;;8.50;99.90;;;;;;20708906;28;20660;-72
2020/12/25 04:23:48;;;;;;;0.27;0.27;;;8.10;99.90;;;;;;20693904;28;20692;-71
2020/12/25 04:33:51;;;;;;;0.63;0.63;;;8.00;99.90;;;;;;20693446;28;20570;-72
2020/12/25 04:44:07;;;;;;;0.20;0.20;;;8.10;99.90;;;;;;20708897;28;20364;-72
2020/12/25 04:54:09;;;;;;;0.20;0.20;;;8.00;99.90;;;;;;20733069;28;20205;-70
2020/12/25 05:04:19;;;;;;;0.57;0.50;;;7.60;99.90;;;;;;20739981;22;20277;-74
2020/12/25 05:14:26;;;;;;;0.77;0.53;;;7.60;99.90;;;;;;20720088;28;20381;-74
2020/12/25 05:24:37;;;;;;;0.20;0.10;;;8.00;99.90;;;;;;20683031;28;20304;-76
2020/12/25 05:34:42;;;;;;;0.20;0.17;;;8.40;99.90;;;;;;20706055;28;20214;-76
2020/12/25 05:44:48;;;;;;;0.30;0.30;;;8.50;99.90;;;;;;20697971;28;20230;-76
2020/12/25 05:54:52;;;;;;;0.40;0.20;;;8.50;99.90;;;;;;20700519;28;20195;-76
2020/12/25 06:04:57;;;;;;;0.30;0.30;;;8.60;99.90;;;;;;20699942;28;20283;-73
2020/12/25 06:15:06;;;;;;;0.40;0.40;;;8.50;99.90;;;;;;20696580;28;20193;-74
2020/12/25 06:25:12;;;;;;;0.80;0.80;;;8.30;99.90;;;;;;20698687;28;20226;-75
2020/12/25 06:35:15;;;;;;;1.90;0.67;;;8.40;99.90;;;;;;20716349;28;20191;-74
2020/12/25 06:45:28;;;;;;;0.30;0.30;;;8.60;99.90;;;;;;20697431;28;20578;-75
2020/12/25 06:55:42;;;;;;;0.80;0.47;;;8.60;99.90;;;;;;20694803;28;20297;-75
2020/12/25 07:05:47;;;;;;;0.37;0.20;;;8.60;99.90;;;;;;20687787;28;20596;-75
2020/12/25 07:15:50;;;;;;;0.30;0.30;;;8.50;99.90;;;;;;20694216;28;20266;-73
2020/12/25 07:25:57;;;;;;;0.30;0.20;;;8.60;99.90;;;;;;20694132;28;20218;-72
2020/12/25 07:36:00;;;;;;;0.20;0.10;;;8.60;99.90;;;;;;20714309;28;20267;-74
2020/12/25 07:46:10;;;;;;;0.20;0.20;;;8.20;99.90;;;;;;20693408;28;20796;-75
2020/12/25 07:56:14;;;;;;;0.20;0.20;;;8.30;99.90;;;;;;20692938;28;20548;-75
2020/12/25 08:06:20;;;;;;;0.83;0.30;;;8.30;99.90;;;;;;20691945;28;20625;-74
2020/12/25 08:16:23;;;;;;;0.70;0.70;;;8.20;99.90;;;;;;20704594;28;20318;-73
2020/12/25 08:26:32;;;;;;;1.73;0.40;;;8.20;99.90;;;;;;20709305;28;20223;-73
2020/12/25 08:36:35;;;;;;;0.20;0.10;;;8.40;99.90;;;;;;20748061;28;20194;-76
2020/12/25 08:46:42;;;;;;;2.57;0.60;;;8.70;99.90;;;;;;20781757;28;20213;-76
2020/12/25 08:56:45;;;;;;;0.30;0.20;;;9.00;99.90;;;;;;20707546;28;20268;-75
2020/12/25 09:06:51;;;;;;;0.80;0.80;;;8.60;99.90;;;;;;20699769;28;20230;-76
2020/12/25 09:17:03;;;;;;;0.20;0.10;;;8.50;99.90;;;;;;20702486;28;20201;-79
2020/12/25 09:27:07;;;;;;;0.20;0.20;;;9.10;99.90;;;;;;20700001;28;20746;-78
2020/12/25 09:37:09;;;;;;;0.40;0.30;;;9.30;99.90;;;;;;20701388;28;20261;-77
2020/12/25 09:47:22;;;;;;;0.20;0.10;;;9.70;99.90;;;;;;20696047;28;20233;-74
2020/12/25 09:57:24;;;;;;;0.53;0.40;;;10.10;99.90;;;;;;20695954;28;20194;-82
2020/12/25 10:07:28;;;;;;;0.23;0.13;;;10.40;99.90;;;;;;20694909;28;20231;-75
2020/12/25 10:17:40;;;;;;;1.80;0.60;;;10.80;99.90;;;;;;20694538;28;20198;-74
2020/12/25 10:27:43;;;;;;;0.37;0.37;;;11.10;99.90;;;;;;20695399;28;20230;-77
2020/12/25 10:37:47;;;;;;;0.30;0.30;;;11.50;99.90;;;;;;20693588;28;20190;-78
2020/12/25 10:48:04;;;;;;;0.20;0.20;;;11.80;99.90;;;;;;20696237;28;20692;-76
2020/12/25 10:58:07;;;;;;;0.20;0.10;;;12.20;99.90;;;;;;20699089;28;20195;-75
2020/12/25 11:08:11;;;;;;;0.37;0.30;;;11.90;99.90;;;;;;20694538;28;20768;-78
2020/12/25 11:18:23;;;;;;;0.20;0.10;;;11.50;99.90;;;;;;20691092;28;20256;-77
2020/12/25 11:28:27;;;;;;;0.20;0.10;;;12.00;99.90;;;;;;20708138;28;20371;-73
2020/12/25 11:38:29;;;;;;;0.47;0.47;;;13.40;99.90;;;;;;20713479;28;20205;-73
2020/12/25 11:48:44;;;;;;;0.50;0.20;;;14.60;99.50;;;;;;20703899;28;20234;-75
2020/12/25 11:58:50;;;;;;;0.20;0.10;;;14.80;97.40;;;;;;20711194;28;20593;-77
2020/12/25 12:08:53;;;;;;;0.63;0.40;;;15.40;96.70;;;;;;20707416;28;20585;-76
2020/12/25 12:19:04;;;;;;;0.40;0.23;;;15.60;96.20;;;;;;20707214;28;20190;-75
2020/12/25 12:29:07;;;;;;;0.20;0.07;;;15.80;95.20;;;;;;20704534;28;20283;-80
2020/12/25 12:39:10;;;;;;;0.57;0.30;;;16.10;94.50;;;;;;20711054;28;21001;-77
2020/12/25 12:49:22;;;;;;;0.20;0.10;;;15.30;93.60;;;;;;20707998;28;20220;-81
2020/12/25 12:59:24;;;;;;;0.50;0.40;;;15.30;93.10;;;;;;20698065;28;20188;-80
2020/12/25 13:09:30;;;;;;;0.70;0.70;;;15.60;92.60;;;;;;20704389;28;20313;-77
2020/12/25 13:19:41;;;;;;;0.20;0.20;;;15.20;92.30;;;;;;20704611;28;20277;-76
2020/12/25 13:29:44;;;;;;;0.20;0.10;;;14.90;91.10;;;;;;20701105;28;20234;-80
2020/12/25 13:39:47;;;;;;;2.23;0.80;;;15.20;90.50;;;;;;20771138;28;20659;-81
2020/12/25 13:50:03;;;;;;;0.40;0.20;;;15.10;90.10;;;;;;20701039;28;20226;-81
2020/12/25 14:00:05;;;;;;;0.20;0.10;;;15.80;88.30;;;;;;20700402;28;20234;-77
2020/12/25 14:10:09;;;;;;;0.20;0.00;;;15.80;87.20;;;;;;20693480;28;20214;-79
2020/12/25 14:20:21;;;;;;;1.30;0.20;;;15.00;85.90;;;;;;20694644;28;20277;-79
2020/12/25 14:30:25;;;;;;;0.20;0.20;;;15.50;85.30;;;;;;20694528;28;20637;-75
2020/12/25 14:40:27;;;;;;;0.20;0.10;;;15.30;84.30;;;;;;20698279;28;20213;-82
2020/12/25 14:50:43;;;;;;;0.20;0.10;;;15.80;84.70;;;;;;20694514;28;20423;-78
2020/12/25 15:00:45;;;;;;;0.20;0.10;;;14.30;86.60;;;;;;20694311;28;20245;-78
2020/12/25 15:10:48;;;;;;;0.40;0.20;;;14.10;87.30;;;;;;20692002;28;20605;-78
2020/12/25 15:21:01;;;;;;;0.20;0.10;;;14.00;87.00;;;;;;20691954;28;20198;-76
2020/12/25 15:31:07;;;;;;;0.20;0.10;;;14.10;85.80;;;;;;20692270;28;20703;-73
2020/12/25 15:41:17;;;;;;;0.20;0.10;;;14.20;84.00;;;;;;20771622;28;20294;-77
2020/12/25 15:51:22;;;;;;;0.20;0.10;;;13.70;84.50;;;;;;20772272;28;20218;-79
2020/12/25 16:01:24;;;;;;;1.80;0.97;;;12.40;86.00;;;;;;20734101;28;20238;-74
2020/12/25 16:11:29;;;;;;;0.20;0.10;;;11.40;88.00;;;;;;20684690;28;20217;-75
2020/12/25 16:21:39;;;;;;;0.27;0.17;;;11.10;86.70;;;;;;20685590;28;20281;-76
2020/12/25 16:31:43;;;;;;;0.33;0.27;;;10.80;86.80;;;;;;20688618;28;20293;-74
2020/12/25 16:41:47;;;;;;;0.20;0.10;;;10.70;85.50;;;;;;20721039;28;20187;-76
2020/12/25 16:52:00;;;;;;;0.20;0.10;;;10.30;88.70;;;;;;20701830;28;20234;-74
2020/12/25 17:02:03;;;;;;;0.20;0.13;;;9.90;91.40;;;;;;20700876;28;20223;-76
2020/12/25 17:12:06;;;;;;;5.93;0.97;;;9.80;92.20;;;;;;20699745;28;20234;-72
2020/12/25 17:22:19;;;;;;;0.70;0.50;;;9.60;93.60;;;;;;20698631;28;20202;-76
2020/12/25 17:32:22;;;;;;;0.80;0.27;;;9.10;95.90;;;;;;20707429;28;20551;-75
2020/12/25 17:42:25;;;;;;;0.50;0.23;;;8.90;97.00;;;;;;20776959;28;20194;-73
2020/12/25 17:52:39;;;;;;;0.20;0.10;;;8.80;97.50;;;;;;20774674;28;20240;-75
2020/12/25 18:02:41;;;;;;;1.80;0.57;;;8.70;97.90;;;;;;20776760;28;20269;-74
2020/12/25 18:12:45;;;;;;;0.60;0.60;;;8.50;98.70;;;;;;20773449;28;20241;-75
2020/12/25 18:22:54;;;;;;;0.20;0.10;;;8.60;97.60;;;;;;20775532;28;20201;-74
2020/12/25 18:32:58;;;;;;;0.20;0.20;;;8.60;97.50;;;;;;20763928;28;20552;-73
2020/12/25 18:43:00;;;;;;;0.20;0.20;;;8.40;98.10;;;;;;20693546;28;20199;-72
2020/12/25 18:53:14;;;;;;;0.97;0.63;;;8.20;98.90;;;;;;20693032;28;20213;-72
2020/12/25 19:03:17;;;;;;;0.50;0.30;;;8.10;99.30;;;;;;20689450;28;20230;-76
2020/12/25 19:13:20;;;;;;;0.20;0.10;;;8.30;98.30;;;;;;20690965;28;20209;-72
2020/12/25 19:23:38;;;;;;;0.40;0.40;;;8.30;98.70;;;;;;20691453;28;20942;-71
2020/12/25 19:33:41;;;;;;;0.57;0.57;;;8.00;99.40;;;;;;20692436;28;20207;-71
2020/12/25 19:43:44;;;;;;;0.30;0.30;;;7.90;99.70;;;;;;20688600;28;20223;-71
2020/12/25 19:53:55;;;;;;;1.13;0.97;;;7.60;99.90;;;;;;20686977;28;20199;-73
2020/12/25 20:03:59;;;;;;;0.83;0.77;;;7.80;99.90;;;;;;20689071;28;20237;-73
2020/12/25 20:14:02;;;;;;;0.20;0.10;;;7.80;99.90;;;;;;20703617;28;20690;-72
2020/12/25 20:24:10;;;;;;;1.60;0.63;;;7.50;99.90;;;;;;20702931;28;20226;-74
2020/12/25 20:34:14;;;;;;;0.50;0.37;;;7.40;99.90;;;;;;20705539;28;20678;-75
2020/12/25 20:44:16;;;;;;;0.20;0.20;;;7.50;99.90;;;;;;20703531;28;20226;-73
2020/12/25 20:54:33;;;;;;;6.53;0.40;;;7.30;99.90;;;;;;20700238;28;20660;-74
2020/12/25 21:04:35;;;;;;;0.30;0.30;;;7.10;99.90;;;;;;20703683;28;20226;-73
2020/12/25 21:14:40;;;;;;;0.47;0.47;;;7.00;99.90;;;;;;20703105;28;20701;-76
2020/12/25 21:24:51;;;;;;;0.20;0.10;;;6.80;99.90;;;;;;20704208;28;20223;-74
2020/12/25 21:34:56;;;;;;;0.67;0.47;;;7.00;99.90;;;;;;20706228;28;20199;-74
2020/12/25 21:44:59;;;;;;;0.23;0.23;;;7.10;99.90;;;;;;20702310;28;20327;-75
2020/12/25 21:55:11;;;;;;;0.30;0.20;;;7.30;99.90;;;;;;20702421;28;20222;-74
2020/12/25 22:05:14;;;;;;;0.63;0.37;;;7.20;99.90;;;;;;20699165;28;20237;-75
2020/12/25 22:15:17;;;;;;;0.20;0.10;;;7.20;99.90;;;;;;20697991;28;20194;-76
2020/12/25 22:25:32;;;;;;;0.80;0.40;;;7.20;99.90;;;;;;20699133;28;20226;-75
2020/12/25 22:35:35;;;;;;;0.20;0.10;;;7.10;99.90;;;;;;20731992;28;20198;-74
2020/12/25 22:45:40;;;;;;;0.20;0.20;;;7.10;99.90;;;;;;20775483;28;20226;-74
2020/12/25 22:55:54;;;;;;;0.47;0.40;;;6.80;99.90;;;;;;20777556;28;20198;-74
2020/12/25 23:05:57;;;;;;;0.20;0.10;;;7.10;99.90;;;;;;20776954;28;20381;-74
2020/12/25 23:16:02;;;;;;;0.20;0.10;;;7.10;99.90;;;;;;20775718;28;20352;-78
2020/12/25 23:26:14;;;;;;;1.13;0.20;;;7.00;99.90;;;;;;20775933;28;20640;-81
2020/12/25 23:36:20;;;;;;;0.63;0.20;;;7.20;99.90;;;;;;20735232;28;20195;-76
2020/12/25 23:46:22;;;;;;;0.20;0.10;;;7.40;99.90;;;;;;20707987;28;20230;-76
2020/12/25 23:56:35;;;;;;;0.20;0.10;;;7.40;99.90;;;;;;20712213;28;20589;-75
